sensor_id;sensor_type;location;lat;lon;timestamp;temperature;humidity
29571;DHT22;16814;52.118;11.436;2022-07-21T00:01:26;26.20;52.80
29571;DHT22;16814;52.118;11.436;2022-07-21T00:03:51;26.50;53.20
29571;DHT22;16814;52.118;11.436;2022-07-21T00:06:18;26.60;53.00
29571;DHT22;16814;52.118;11.436;2022-07-21T00:08:45;26.60;53.10
29571;DHT22;16814;52.118;11.436;2022-07-21T00:11:12;26.50;53.10
29571;DHT22;16814;52.118;11.436;2022-07-21T00:13:38;26.40;53.40
29571;DHT22;16814;52.118;11.436;2022-07-21T00:16:04;26.20;54.40
29571;DHT22;16814;52.118;11.436;2022-07-21T00:18:31;26.10;55.60
29571;DHT22;16814;52.118;11.436;2022-07-21T00:21:01;25.90;57.80
29571;DHT22;16814;52.118;11.436;2022-07-21T00:23:30;25.70;58.20
29571;DHT22;16814;52.118;11.436;2022-07-21T00:25:56;25.50;58.90
29571;DHT22;16814;52.118;11.436;2022-07-21T00:28:24;25.30;59.10
29571;DHT22;16814;52.118;11.436;2022-07-21T00:30:51;25.10;59.20
29571;DHT22;16814;52.118;11.436;2022-07-21T00:33:18;24.90;58.90
29571;DHT22;16814;52.118;11.436;2022-07-21T00:35:44;24.80;58.50
29571;DHT22;16814;52.118;11.436;2022-07-21T00:38:12;24.50;58.40
29571;DHT22;16814;52.118;11.436;2022-07-21T00:40:38;24.40;58.00
29571;DHT22;16814;52.118;11.436;2022-07-21T00:43:03;24.30;58.00
29571;DHT22;16814;52.118;11.436;2022-07-21T00:45:31;24.10;57.90
29571;DHT22;16814;52.118;11.436;2022-07-21T00:47:59;24.00;58.00
29571;DHT22;16814;52.118;11.436;2022-07-21T00:50:26;23.90;58.10
29571;DHT22;16814;52.118;11.436;2022-07-21T00:52:53;23.80;58.10
29571;DHT22;16814;52.118;11.436;2022-07-21T00:55:21;23.70;58.20
29571;DHT22;16814;52.118;11.436;2022-07-21T00:57:49;23.70;58.40
29571;DHT22;16814;52.118;11.436;2022-07-21T01:00:22;23.60;58.50
29571;DHT22;16814;52.118;11.436;2022-07-21T01:02:50;23.50;58.60
29571;DHT22;16814;52.118;11.436;2022-07-21T01:05:17;23.50;58.90
29571;DHT22;16814;52.118;11.436;2022-07-21T01:07:47;23.40;59.00
29571;DHT22;16814;52.118;11.436;2022-07-21T01:10:14;23.30;59.20
29571;DHT22;16814;52.118;11.436;2022-07-21T01:12:43;23.30;59.30
29571;DHT22;16814;52.118;11.436;2022-07-21T01:15:15;23.30;59.50
29571;DHT22;16814;52.118;11.436;2022-07-21T01:17:43;23.30;59.60
29571;DHT22;16814;52.118;11.436;2022-07-21T01:20:15;23.20;59.70
29571;DHT22;16814;52.118;11.436;2022-07-21T01:22:43;23.20;59.80
29571;DHT22;16814;52.118;11.436;2022-07-21T01:25:12;23.20;60.00
29571;DHT22;16814;52.118;11.436;2022-07-21T01:27:39;23.20;60.10
29571;DHT22;16814;52.118;11.436;2022-07-21T01:30:09;23.20;60.60
29571;DHT22;16814;52.118;11.436;2022-07-21T01:32:38;23.20;60.80
29571;DHT22;16814;52.118;11.436;2022-07-21T01:35:07;23.10;61.10
29571;DHT22;16814;52.118;11.436;2022-07-21T01:37:37;23.10;61.40
29571;DHT22;16814;52.118;11.436;2022-07-21T01:40:07;23.10;61.50
29571;DHT22;16814;52.118;11.436;2022-07-21T01:42:52;23.10;61.60
29571;DHT22;16814;52.118;11.436;2022-07-21T01:45:22;23.00;61.70
29571;DHT22;16814;52.118;11.436;2022-07-21T01:47:48;23.10;61.90
29571;DHT22;16814;52.118;11.436;2022-07-21T01:50:15;23.10;61.90
29571;DHT22;16814;52.118;11.436;2022-07-21T01:52:45;23.00;62.10
29571;DHT22;16814;52.118;11.436;2022-07-21T01:55:14;23.00;62.40
29571;DHT22;16814;52.118;11.436;2022-07-21T01:57:41;22.90;62.50
29571;DHT22;16814;52.118;11.436;2022-07-21T02:00:08;22.90;63.60
29571;DHT22;16814;52.118;11.436;2022-07-21T02:02:39;22.90;63.00
29571;DHT22;16814;52.118;11.436;2022-07-21T02:05:06;22.90;63.40
29571;DHT22;16814;52.118;11.436;2022-07-21T02:07:40;22.80;63.50
29571;DHT22;16814;52.118;11.436;2022-07-21T02:10:07;22.80;63.90
29571;DHT22;16814;52.118;11.436;2022-07-21T02:12:34;22.80;64.30
29571;DHT22;16814;52.118;11.436;2022-07-21T02:15:01;22.70;64.60
29571;DHT22;16814;52.118;11.436;2022-07-21T02:17:27;22.80;65.50
29571;DHT22;16814;52.118;11.436;2022-07-21T02:19:54;22.80;65.90
29571;DHT22;16814;52.118;11.436;2022-07-21T02:22:21;22.70;67.00
29571;DHT22;16814;52.118;11.436;2022-07-21T02:24:48;22.70;68.00
29571;DHT22;16814;52.118;11.436;2022-07-21T02:27:15;22.60;68.90
29571;DHT22;16814;52.118;11.436;2022-07-21T02:29:42;22.60;69.30
29571;DHT22;16814;52.118;11.436;2022-07-21T02:32:09;22.60;69.90
29571;DHT22;16814;52.118;11.436;2022-07-21T02:34:37;22.60;70.20
29571;DHT22;16814;52.118;11.436;2022-07-21T02:37:04;22.60;70.20
29571;DHT22;16814;52.118;11.436;2022-07-21T02:39:32;22.60;70.40
29571;DHT22;16814;52.118;11.436;2022-07-21T02:41:57;22.70;70.60
29571;DHT22;16814;52.118;11.436;2022-07-21T02:44:26;22.70;70.70
29571;DHT22;16814;52.118;11.436;2022-07-21T02:46:52;22.70;70.60
29571;DHT22;16814;52.118;11.436;2022-07-21T02:49:19;22.80;70.60
29571;DHT22;16814;52.118;11.436;2022-07-21T02:51:45;22.80;70.70
29571;DHT22;16814;52.118;11.436;2022-07-21T02:54:15;22.90;70.80
29571;DHT22;16814;52.118;11.436;2022-07-21T02:56:42;22.90;71.00
29571;DHT22;16814;52.118;11.436;2022-07-21T02:59:07;22.90;71.30
29571;DHT22;16814;52.118;11.436;2022-07-21T03:01:33;22.80;71.70
29571;DHT22;16814;52.118;11.436;2022-07-21T03:03:59;22.80;71.90
29571;DHT22;16814;52.118;11.436;2022-07-21T03:06:26;22.80;72.30
29571;DHT22;16814;52.118;11.436;2022-07-21T03:08:53;22.80;72.60
29571;DHT22;16814;52.118;11.436;2022-07-21T03:11:19;22.80;72.70
29571;DHT22;16814;52.118;11.436;2022-07-21T03:13:46;22.80;73.40
29571;DHT22;16814;52.118;11.436;2022-07-21T03:16:12;22.80;73.60
29571;DHT22;16814;52.118;11.436;2022-07-21T03:18:39;22.80;73.60
29571;DHT22;16814;52.118;11.436;2022-07-21T03:21:07;22.80;73.90
29571;DHT22;16814;52.118;11.436;2022-07-21T03:23:35;22.80;73.60
29571;DHT22;16814;52.118;11.436;2022-07-21T03:26:01;22.90;73.50
29571;DHT22;16814;52.118;11.436;2022-07-21T03:28:27;22.90;73.70
29571;DHT22;16814;52.118;11.436;2022-07-21T03:30:54;22.90;74.00
29571;DHT22;16814;52.118;11.436;2022-07-21T03:33:22;22.90;73.90
29571;DHT22;16814;52.118;11.436;2022-07-21T03:35:49;22.90;74.00
29571;DHT22;16814;52.118;11.436;2022-07-21T03:38:17;22.90;74.10
29571;DHT22;16814;52.118;11.436;2022-07-21T03:40:43;22.90;74.10
29571;DHT22;16814;52.118;11.436;2022-07-21T03:43:11;22.90;74.40
29571;DHT22;16814;52.118;11.436;2022-07-21T03:45:38;22.90;74.80
29571;DHT22;16814;52.118;11.436;2022-07-21T03:48:05;22.80;75.00
29571;DHT22;16814;52.118;11.436;2022-07-21T03:50:35;22.80;75.40
29571;DHT22;16814;52.118;11.436;2022-07-21T03:53:03;22.70;75.90
29571;DHT22;16814;52.118;11.436;2022-07-21T03:55:30;22.70;76.40
29571;DHT22;16814;52.118;11.436;2022-07-21T03:58:02;22.70;76.60
29571;DHT22;16814;52.118;11.436;2022-07-21T04:00:40;22.60;77.10
29571;DHT22;16814;52.118;11.436;2022-07-21T04:03:07;22.60;77.40
29571;DHT22;16814;52.118;11.436;2022-07-21T04:05:35;22.60;77.80
29571;DHT22;16814;52.118;11.436;2022-07-21T04:08:02;22.60;77.90
29571;DHT22;16814;52.118;11.436;2022-07-21T04:10:32;22.60;78.00
29571;DHT22;16814;52.118;11.436;2022-07-21T04:13:04;22.60;78.10
29571;DHT22;16814;52.118;11.436;2022-07-21T04:15:39;22.70;77.90
29571;DHT22;16814;52.118;11.436;2022-07-21T04:18:06;22.70;77.80
29571;DHT22;16814;52.118;11.436;2022-07-21T04:20:34;22.70;78.20
29571;DHT22;16814;52.118;11.436;2022-07-21T04:23:01;22.70;78.90
29571;DHT22;16814;52.118;11.436;2022-07-21T04:25:26;22.70;79.20
29571;DHT22;16814;52.118;11.436;2022-07-21T04:27:53;22.70;79.30
29571;DHT22;16814;52.118;11.436;2022-07-21T04:30:22;22.70;79.30
29571;DHT22;16814;52.118;11.436;2022-07-21T04:32:48;22.70;79.50
29571;DHT22;16814;52.118;11.436;2022-07-21T04:35:15;22.80;79.90
29571;DHT22;16814;52.118;11.436;2022-07-21T04:37:44;22.80;80.20
29571;DHT22;16814;52.118;11.436;2022-07-21T04:40:11;22.80;80.30
29571;DHT22;16814;52.118;11.436;2022-07-21T04:42:42;22.80;80.30
29571;DHT22;16814;52.118;11.436;2022-07-21T04:45:10;22.80;80.20
29571;DHT22;16814;52.118;11.436;2022-07-21T04:47:51;22.90;80.10
29571;DHT22;16814;52.118;11.436;2022-07-21T04:50:22;22.90;79.80
29571;DHT22;16814;52.118;11.436;2022-07-21T04:52:49;23.00;79.60
29571;DHT22;16814;52.118;11.436;2022-07-21T04:55:15;23.00;79.50
29571;DHT22;16814;52.118;11.436;2022-07-21T04:57:43;23.00;79.10
29571;DHT22;16814;52.118;11.436;2022-07-21T05:00:16;23.10;79.10
29571;DHT22;16814;52.118;11.436;2022-07-21T05:02:43;23.10;78.80
29571;DHT22;16814;52.118;11.436;2022-07-21T05:05:09;23.10;78.80
29571;DHT22;16814;52.118;11.436;2022-07-21T05:07:35;23.20;79.00
29571;DHT22;16814;52.118;11.436;2022-07-21T05:10:10;23.20;78.80
29571;DHT22;16814;52.118;11.436;2022-07-21T05:12:37;23.20;78.80
29571;DHT22;16814;52.118;11.436;2022-07-21T05:15:08;23.30;78.60
29571;DHT22;16814;52.118;11.436;2022-07-21T05:17:36;23.30;78.70
29571;DHT22;16814;52.118;11.436;2022-07-21T05:20:02;23.20;78.50
29571;DHT22;16814;52.118;11.436;2022-07-21T05:22:29;23.30;78.60
29571;DHT22;16814;52.118;11.436;2022-07-21T05:24:56;23.30;78.40
29571;DHT22;16814;52.118;11.436;2022-07-21T05:27:23;23.30;78.20
29571;DHT22;16814;52.118;11.436;2022-07-21T05:29:50;23.40;78.20
29571;DHT22;16814;52.118;11.436;2022-07-21T05:32:16;23.40;78.30
29571;DHT22;16814;52.118;11.436;2022-07-21T05:34:42;23.30;78.10
29571;DHT22;16814;52.118;11.436;2022-07-21T05:37:09;23.30;78.30
29571;DHT22;16814;52.118;11.436;2022-07-21T05:39:34;23.20;79.20
29571;DHT22;16814;52.118;11.436;2022-07-21T05:42:03;23.30;79.20
29571;DHT22;16814;52.118;11.436;2022-07-21T05:44:29;23.30;79.70
29571;DHT22;16814;52.118;11.436;2022-07-21T05:46:55;23.40;79.00
29571;DHT22;16814;52.118;11.436;2022-07-21T05:49:21;23.50;79.20
29571;DHT22;16814;52.118;11.436;2022-07-21T05:51:48;23.50;78.90
29571;DHT22;16814;52.118;11.436;2022-07-21T05:54:15;23.60;79.10
29571;DHT22;16814;52.118;11.436;2022-07-21T05:56:43;23.60;79.30
29571;DHT22;16814;52.118;11.436;2022-07-21T05:59:08;23.60;78.90
29571;DHT22;16814;52.118;11.436;2022-07-21T06:01:35;23.50;79.10
29571;DHT22;16814;52.118;11.436;2022-07-21T06:04:02;23.50;79.90
29571;DHT22;16814;52.118;11.436;2022-07-21T06:06:27;23.40;80.20
29571;DHT22;16814;52.118;11.436;2022-07-21T06:08:55;23.40;81.10
29571;DHT22;16814;52.118;11.436;2022-07-21T06:11:21;23.30;82.00
29571;DHT22;16814;52.118;11.436;2022-07-21T06:13:47;23.20;83.30
29571;DHT22;16814;52.118;11.436;2022-07-21T06:16:15;23.20;84.60
29571;DHT22;16814;52.118;11.436;2022-07-21T06:18:42;23.00;85.50
29571;DHT22;16814;52.118;11.436;2022-07-21T06:21:08;23.00;86.40
29571;DHT22;16814;52.118;11.436;2022-07-21T06:23:35;23.00;87.10
29571;DHT22;16814;52.118;11.436;2022-07-21T06:26:01;23.00;88.10
29571;DHT22;16814;52.118;11.436;2022-07-21T06:28:27;23.00;90.00
29571;DHT22;16814;52.118;11.436;2022-07-21T06:30:55;23.00;90.20
29571;DHT22;16814;52.118;11.436;2022-07-21T06:33:22;23.00;90.80
29571;DHT22;16814;52.118;11.436;2022-07-21T06:35:49;23.00;91.30
29571;DHT22;16814;52.118;11.436;2022-07-21T06:38:18;23.10;91.50
29571;DHT22;16814;52.118;11.436;2022-07-21T06:40:45;23.10;92.10
29571;DHT22;16814;52.118;11.436;2022-07-21T06:43:12;23.30;92.00
29571;DHT22;16814;52.118;11.436;2022-07-21T06:45:40;23.50;92.10
29571;DHT22;16814;52.118;11.436;2022-07-21T06:48:08;23.50;92.00
29571;DHT22;16814;52.118;11.436;2022-07-21T06:50:36;23.70;92.10
29571;DHT22;16814;52.118;11.436;2022-07-21T06:53:02;24.10;91.50
29571;DHT22;16814;52.118;11.436;2022-07-21T06:55:29;24.60;90.40
29571;DHT22;16814;52.118;11.436;2022-07-21T06:57:56;24.90;89.00
29571;DHT22;16814;52.118;11.436;2022-07-21T07:00:22;25.10;87.60
29571;DHT22;16814;52.118;11.436;2022-07-21T07:02:50;25.10;87.10
29571;DHT22;16814;52.118;11.436;2022-07-21T07:05:18;25.10;87.00
29571;DHT22;16814;52.118;11.436;2022-07-21T07:07:45;25.10;87.00
29571;DHT22;16814;52.118;11.436;2022-07-21T07:10:15;25.30;86.90
29571;DHT22;16814;52.118;11.436;2022-07-21T07:12:42;25.90;85.60
29571;DHT22;16814;52.118;11.436;2022-07-21T07:15:10;26.50;83.70
29571;DHT22;16814;52.118;11.436;2022-07-21T07:17:36;27.00;79.80
29571;DHT22;16814;52.118;11.436;2022-07-21T07:20:03;27.10;76.10
29571;DHT22;16814;52.118;11.436;2022-07-21T07:22:32;26.90;76.40
29571;DHT22;16814;52.118;11.436;2022-07-21T07:24:57;26.50;76.80
29571;DHT22;16814;52.118;11.436;2022-07-21T07:27:23;26.10;78.00
29571;DHT22;16814;52.118;11.436;2022-07-21T07:29:48;25.80;78.70
29571;DHT22;16814;52.118;11.436;2022-07-21T07:32:15;25.80;79.50
29571;DHT22;16814;52.118;11.436;2022-07-21T07:34:42;26.00;79.10
29571;DHT22;16814;52.118;11.436;2022-07-21T07:37:12;25.90;78.60
29571;DHT22;16814;52.118;11.436;2022-07-21T07:39:39;25.90;78.90
29571;DHT22;16814;52.118;11.436;2022-07-21T07:42:06;25.80;79.20
29571;DHT22;16814;52.118;11.436;2022-07-21T07:44:33;25.90;79.10
29571;DHT22;16814;52.118;11.436;2022-07-21T07:47:00;25.90;79.10
29571;DHT22;16814;52.118;11.436;2022-07-21T07:49:33;26.00;79.60
29571;DHT22;16814;52.118;11.436;2022-07-21T07:51:59;25.90;79.70
29571;DHT22;16814;52.118;11.436;2022-07-21T07:54:27;25.90;80.10
29571;DHT22;16814;52.118;11.436;2022-07-21T07:56:53;25.80;79.90
29571;DHT22;16814;52.118;11.436;2022-07-21T07:59:20;25.80;80.20
29571;DHT22;16814;52.118;11.436;2022-07-21T08:01:45;25.80;79.10
29571;DHT22;16814;52.118;11.436;2022-07-21T08:04:13;25.90;79.20
29571;DHT22;16814;52.118;11.436;2022-07-21T08:06:40;26.10;79.00
29571;DHT22;16814;52.118;11.436;2022-07-21T08:09:06;26.40;78.50
29571;DHT22;16814;52.118;11.436;2022-07-21T08:11:32;26.80;77.10
29571;DHT22;16814;52.118;11.436;2022-07-21T08:14:00;26.90;76.60
29571;DHT22;16814;52.118;11.436;2022-07-21T08:16:26;27.00;75.60
29571;DHT22;16814;52.118;11.436;2022-07-21T08:18:53;27.00;75.70
29571;DHT22;16814;52.118;11.436;2022-07-21T08:21:19;27.10;75.30
29571;DHT22;16814;52.118;11.436;2022-07-21T08:23:46;27.10;75.60
29571;DHT22;16814;52.118;11.436;2022-07-21T08:26:13;27.20;75.60
29571;DHT22;16814;52.118;11.436;2022-07-21T08:28:40;27.00;75.90
29571;DHT22;16814;52.118;11.436;2022-07-21T08:31:06;27.00;76.50
29571;DHT22;16814;52.118;11.436;2022-07-21T08:33:32;27.00;76.00
29571;DHT22;16814;52.118;11.436;2022-07-21T08:36:00;26.80;76.40
29571;DHT22;16814;52.118;11.436;2022-07-21T08:38:26;26.60;78.40
29571;DHT22;16814;52.118;11.436;2022-07-21T08:40:53;26.80;77.70
29571;DHT22;16814;52.118;11.436;2022-07-21T08:43:22;27.40;76.80
29571;DHT22;16814;52.118;11.436;2022-07-21T08:45:50;28.00;74.00
29571;DHT22;16814;52.118;11.436;2022-07-21T08:48:22;28.20;72.90
29571;DHT22;16814;52.118;11.436;2022-07-21T08:50:51;28.50;71.60
29571;DHT22;16814;52.118;11.436;2022-07-21T08:53:19;29.00;71.50
29571;DHT22;16814;52.118;11.436;2022-07-21T08:55:46;29.40;70.40
29571;DHT22;16814;52.118;11.436;2022-07-21T08:58:13;29.90;69.80
29571;DHT22;16814;52.118;11.436;2022-07-21T09:00:42;30.10;68.60
29571;DHT22;16814;52.118;11.436;2022-07-21T09:03:18;30.20;66.70
29571;DHT22;16814;52.118;11.436;2022-07-21T09:08:41;30.10;66.60
29571;DHT22;16814;52.118;11.436;2022-07-21T09:13:35;30.60;66.80
29571;DHT22;16814;52.118;11.436;2022-07-21T09:16:02;30.80;64.50
29571;DHT22;16814;52.118;11.436;2022-07-21T09:18:30;31.00;64.70
29571;DHT22;16814;52.118;11.436;2022-07-21T09:20:56;30.90;63.40
29571;DHT22;16814;52.118;11.436;2022-07-21T09:23:24;30.70;63.20
29571;DHT22;16814;52.118;11.436;2022-07-21T09:25:55;30.60;64.90
29571;DHT22;16814;52.118;11.436;2022-07-21T09:28:27;30.10;64.70
29571;DHT22;16814;52.118;11.436;2022-07-21T09:31:03;29.80;65.40
29571;DHT22;16814;52.118;11.436;2022-07-21T09:33:46;29.40;66.80
29571;DHT22;16814;52.118;11.436;2022-07-21T09:36:21;29.10;67.40
29571;DHT22;16814;52.118;11.436;2022-07-21T09:38:56;28.80;68.80
29571;DHT22;16814;52.118;11.436;2022-07-21T09:41:24;28.40;70.70
29571;DHT22;16814;52.118;11.436;2022-07-21T09:43:57;28.50;71.00
29571;DHT22;16814;52.118;11.436;2022-07-21T09:46:27;28.50;71.00
29571;DHT22;16814;52.118;11.436;2022-07-21T09:49:00;28.60;70.80
29571;DHT22;16814;52.118;11.436;2022-07-21T09:51:37;28.90;69.70
29571;DHT22;16814;52.118;11.436;2022-07-21T09:54:23;29.10;69.40
29571;DHT22;16814;52.118;11.436;2022-07-21T09:56:49;28.80;70.80
29571;DHT22;16814;52.118;11.436;2022-07-21T09:59:15;28.80;71.20
29571;DHT22;16814;52.118;11.436;2022-07-21T10:01:41;29.10;70.00
29571;DHT22;16814;52.118;11.436;2022-07-21T10:04:07;29.30;70.10
29571;DHT22;16814;52.118;11.436;2022-07-21T10:06:34;29.40;69.90
29571;DHT22;16814;52.118;11.436;2022-07-21T10:09:06;29.80;68.40
29571;DHT22;16814;52.118;11.436;2022-07-21T10:11:32;30.20;67.40
29571;DHT22;16814;52.118;11.436;2022-07-21T10:13:59;30.20;67.80
29571;DHT22;16814;52.118;11.436;2022-07-21T10:16:26;30.60;66.60
29571;DHT22;16814;52.118;11.436;2022-07-21T10:19:23;30.80;65.80
29571;DHT22;16814;52.118;11.436;2022-07-21T10:22:23;31.20;63.50
29571;DHT22;16814;52.118;11.436;2022-07-21T10:24:53;31.10;63.80
29571;DHT22;16814;52.118;11.436;2022-07-21T10:27:20;30.80;64.20
29571;DHT22;16814;52.118;11.436;2022-07-21T10:29:55;30.90;64.00
29571;DHT22;16814;52.118;11.436;2022-07-21T10:32:25;31.20;63.70
29571;DHT22;16814;52.118;11.436;2022-07-21T10:34:54;30.90;63.40
29571;DHT22;16814;52.118;11.436;2022-07-21T10:42:39;31.20;64.40
29571;DHT22;16814;52.118;11.436;2022-07-21T10:47:55;31.80;60.40
29571;DHT22;16814;52.118;11.436;2022-07-21T10:50:35;31.50;61.20
29571;DHT22;16814;52.118;11.436;2022-07-21T10:55:36;31.60;60.00
29571;DHT22;16814;52.118;11.436;2022-07-21T10:58:31;31.00;60.90
29571;DHT22;16814;52.118;11.436;2022-07-21T11:01:03;30.80;61.80
29571;DHT22;16814;52.118;11.436;2022-07-21T11:03:42;30.80;61.70
29571;DHT22;16814;52.118;11.436;2022-07-21T11:06:26;30.40;64.70
29571;DHT22;16814;52.118;11.436;2022-07-21T11:11:29;28.40;74.20
29571;DHT22;16814;52.118;11.436;2022-07-21T11:14:12;27.30;78.10
29571;DHT22;16814;52.118;11.436;2022-07-21T11:19:47;25.90;84.90
29571;DHT22;16814;52.118;11.436;2022-07-21T11:22:28;25.30;90.50
29571;DHT22;16814;52.118;11.436;2022-07-21T11:25:05;25.20;92.80
29571;DHT22;16814;52.118;11.436;2022-07-21T11:27:36;25.30;93.80
29571;DHT22;16814;52.118;11.436;2022-07-21T11:30:05;25.30;93.30
29571;DHT22;16814;52.118;11.436;2022-07-21T11:32:32;25.40;94.50
29571;DHT22;16814;52.118;11.436;2022-07-21T11:35:01;25.50;92.90
29571;DHT22;16814;52.118;11.436;2022-07-21T11:37:37;25.50;93.50
29571;DHT22;16814;52.118;11.436;2022-07-21T11:40:11;25.70;93.60
29571;DHT22;16814;52.118;11.436;2022-07-21T11:42:40;25.70;92.90
29571;DHT22;16814;52.118;11.436;2022-07-21T11:45:09;26.00;93.10
29571;DHT22;16814;52.118;11.436;2022-07-21T11:47:35;25.90;92.50
29571;DHT22;16814;52.118;11.436;2022-07-21T11:50:06;26.00;94.60
29571;DHT22;16814;52.118;11.436;2022-07-21T11:52:34;26.10;93.20
29571;DHT22;16814;52.118;11.436;2022-07-21T11:55:04;26.10;91.60
29571;DHT22;16814;52.118;11.436;2022-07-21T11:57:31;26.10;94.00
29571;DHT22;16814;52.118;11.436;2022-07-21T12:00:00;26.10;93.90
29571;DHT22;16814;52.118;11.436;2022-07-21T12:02:30;26.10;93.50
29571;DHT22;16814;52.118;11.436;2022-07-21T12:05:06;26.00;92.80
29571;DHT22;16814;52.118;11.436;2022-07-21T12:07:45;26.00;94.10
29571;DHT22;16814;52.118;11.436;2022-07-21T12:10:28;26.10;92.70
29571;DHT22;16814;52.118;11.436;2022-07-21T12:13:00;26.20;94.10
29571;DHT22;16814;52.118;11.436;2022-07-21T12:15:31;26.10;94.30
29571;DHT22;16814;52.118;11.436;2022-07-21T12:18:05;26.20;93.00
29571;DHT22;16814;52.118;11.436;2022-07-21T12:20:37;26.20;94.00
29571;DHT22;16814;52.118;11.436;2022-07-21T12:25:52;26.10;93.00
29571;DHT22;16814;52.118;11.436;2022-07-21T12:28:20;26.20;94.20
29571;DHT22;16814;52.118;11.436;2022-07-21T12:30:50;26.30;93.50
29571;DHT22;16814;52.118;11.436;2022-07-21T12:33:30;26.30;94.60
29571;DHT22;16814;52.118;11.436;2022-07-21T12:36:05;26.20;92.50
29571;DHT22;16814;52.118;11.436;2022-07-21T12:38:39;26.30;92.50
29571;DHT22;16814;52.118;11.436;2022-07-21T12:41:10;26.30;92.40
29571;DHT22;16814;52.118;11.436;2022-07-21T12:43:37;26.20;92.30
29571;DHT22;16814;52.118;11.436;2022-07-21T12:46:14;26.20;91.60
29571;DHT22;16814;52.118;11.436;2022-07-21T12:48:41;26.20;92.40
29571;DHT22;16814;52.118;11.436;2022-07-21T12:51:12;26.20;92.20
29571;DHT22;16814;52.118;11.436;2022-07-21T12:53:53;26.20;92.80
29571;DHT22;16814;52.118;11.436;2022-07-21T12:56:24;26.30;94.40
29571;DHT22;16814;52.118;11.436;2022-07-21T12:58:51;26.40;92.40
29571;DHT22;16814;52.118;11.436;2022-07-21T13:01:20;26.40;91.50
29571;DHT22;16814;52.118;11.436;2022-07-21T13:03:46;26.40;89.50
29571;DHT22;16814;52.118;11.436;2022-07-21T13:06:13;26.50;90.60
29571;DHT22;16814;52.118;11.436;2022-07-21T13:08:42;26.50;88.40
29571;DHT22;16814;52.118;11.436;2022-07-21T13:11:22;26.60;87.40
29571;DHT22;16814;52.118;11.436;2022-07-21T13:13:50;26.60;87.50
29571;DHT22;16814;52.118;11.436;2022-07-21T13:16:18;26.50;87.10
29571;DHT22;16814;52.118;11.436;2022-07-21T13:18:44;26.50;85.40
29571;DHT22;16814;52.118;11.436;2022-07-21T13:21:14;26.60;82.80
29571;DHT22;16814;52.118;11.436;2022-07-21T13:23:42;26.70;82.00
29571;DHT22;16814;52.118;11.436;2022-07-21T13:26:09;26.70;79.80
29571;DHT22;16814;52.118;11.436;2022-07-21T13:28:36;26.80;80.40
29571;DHT22;16814;52.118;11.436;2022-07-21T13:31:04;26.90;80.00
29571;DHT22;16814;52.118;11.436;2022-07-21T13:33:33;26.90;81.30
29571;DHT22;16814;52.118;11.436;2022-07-21T13:35:59;27.00;80.80
29571;DHT22;16814;52.118;11.436;2022-07-21T13:38:26;27.00;79.80
29571;DHT22;16814;52.118;11.436;2022-07-21T13:40:52;27.10;80.10
29571;DHT22;16814;52.118;11.436;2022-07-21T13:43:19;27.20;81.50
29571;DHT22;16814;52.118;11.436;2022-07-21T13:45:44;27.20;83.60
29571;DHT22;16814;52.118;11.436;2022-07-21T13:48:10;27.40;82.30
29571;DHT22;16814;52.118;11.436;2022-07-21T13:50:37;27.40;78.10
29571;DHT22;16814;52.118;11.436;2022-07-21T13:53:02;27.30;78.80
29571;DHT22;16814;52.118;11.436;2022-07-21T13:55:31;27.20;79.80
29571;DHT22;16814;52.118;11.436;2022-07-21T13:57:58;27.10;79.00
29571;DHT22;16814;52.118;11.436;2022-07-21T14:00:24;27.00;79.10
29571;DHT22;16814;52.118;11.436;2022-07-21T14:02:49;27.00;79.20
29571;DHT22;16814;52.118;11.436;2022-07-21T14:05:17;26.90;77.80
29571;DHT22;16814;52.118;11.436;2022-07-21T14:07:44;26.80;78.00
29571;DHT22;16814;52.118;11.436;2022-07-21T14:10:11;26.80;79.20
29571;DHT22;16814;52.118;11.436;2022-07-21T14:12:37;26.90;78.80
29571;DHT22;16814;52.118;11.436;2022-07-21T14:15:04;26.90;78.30
29571;DHT22;16814;52.118;11.436;2022-07-21T14:17:32;27.00;78.50
29571;DHT22;16814;52.118;11.436;2022-07-21T14:19:59;27.10;79.30
29571;DHT22;16814;52.118;11.436;2022-07-21T14:22:24;27.20;78.50
29571;DHT22;16814;52.118;11.436;2022-07-21T14:24:50;27.20;77.60
29571;DHT22;16814;52.118;11.436;2022-07-21T14:27:38;27.20;78.20
29571;DHT22;16814;52.118;11.436;2022-07-21T14:30:07;27.30;75.80
29571;DHT22;16814;52.118;11.436;2022-07-21T14:32:33;27.30;74.10
29571;DHT22;16814;52.118;11.436;2022-07-21T14:35:00;27.20;73.90
29571;DHT22;16814;52.118;11.436;2022-07-21T14:37:27;27.20;74.60
29571;DHT22;16814;52.118;11.436;2022-07-21T14:39:53;27.10;75.10
29571;DHT22;16814;52.118;11.436;2022-07-21T14:42:19;27.10;75.10
29571;DHT22;16814;52.118;11.436;2022-07-21T14:44:46;27.10;75.40
29571;DHT22;16814;52.118;11.436;2022-07-21T14:47:12;27.10;74.60
29571;DHT22;16814;52.118;11.436;2022-07-21T14:49:38;27.10;75.10
29571;DHT22;16814;52.118;11.436;2022-07-21T14:52:04;27.10;75.60
29571;DHT22;16814;52.118;11.436;2022-07-21T14:54:37;27.20;75.40
29571;DHT22;16814;52.118;11.436;2022-07-21T14:57:05;27.10;75.10
29571;DHT22;16814;52.118;11.436;2022-07-21T14:59:35;26.90;74.40
29571;DHT22;16814;52.118;11.436;2022-07-21T15:02:00;26.90;75.10
29571;DHT22;16814;52.118;11.436;2022-07-21T15:04:28;26.90;73.00
29571;DHT22;16814;52.118;11.436;2022-07-21T15:06:55;26.80;72.10
29571;DHT22;16814;52.118;11.436;2022-07-21T15:09:22;26.70;71.80
29571;DHT22;16814;52.118;11.436;2022-07-21T15:11:49;26.70;71.70
29571;DHT22;16814;52.118;11.436;2022-07-21T15:14:16;26.70;72.00
29571;DHT22;16814;52.118;11.436;2022-07-21T15:16:42;26.70;71.90
29571;DHT22;16814;52.118;11.436;2022-07-21T15:19:09;26.70;71.30
29571;DHT22;16814;52.118;11.436;2022-07-21T15:21:36;26.60;72.10
29571;DHT22;16814;52.118;11.436;2022-07-21T15:24:04;26.70;72.40
29571;DHT22;16814;52.118;11.436;2022-07-21T15:26:30;26.70;72.60
29571;DHT22;16814;52.118;11.436;2022-07-21T15:28:56;26.70;71.30
29571;DHT22;16814;52.118;11.436;2022-07-21T15:31:24;26.70;70.30
29571;DHT22;16814;52.118;11.436;2022-07-21T15:33:51;26.70;70.30
29571;DHT22;16814;52.118;11.436;2022-07-21T15:36:18;26.70;70.90
29571;DHT22;16814;52.118;11.436;2022-07-21T15:38:45;26.60;70.60
29571;DHT22;16814;52.118;11.436;2022-07-21T15:41:12;26.60;71.00
29571;DHT22;16814;52.118;11.436;2022-07-21T15:43:38;26.50;70.60
29571;DHT22;16814;52.118;11.436;2022-07-21T15:46:05;26.40;70.70
29571;DHT22;16814;52.118;11.436;2022-07-21T15:48:31;26.30;70.80